Lagrange, Maine
Current Conditions -  °F | °C
As of 9:20 AM on Tuesday 27 Jan 2015 (Local Time) from KBGR Reporting Station
Heavy Snow Heavy Snow  
Wind Chill: -15°   Ceiling: 500
Heat Index:   Visibility: 0.25mi
Dew Point:   Wind: 29mph
Humidity: 83%   Direction: 20°NNE
Pressure: 29.8"   Gusts: 37mph
Location:  45.17°N, 68.84°W
Report Text: KBGR 271420Z 02025G32KT 1/4SM R15/1600V2400FT +SN BLSN VV005 M13/M16 A2980 RMK AO2 PK WND 02032/1415 P0000 T11331156
Loading
Personal Weather Stations






























Interactive Weather Map New forecast layout! Learn more

10-Day Weather Forecast

Advertisements
Track Severe Weather on mobile